createdAt,value
2023-05-14T00:00:42.943Z,0.00
2023-05-14T00:01:42.937Z,0.00
2023-05-14T00:02:43.059Z,0.00
2023-05-14T00:03:42.978Z,0.00
2023-05-14T00:04:42.916Z,0.00
2023-05-14T00:05:42.912Z,0.00
2023-05-14T00:06:42.902Z,0.00
2023-05-14T00:07:42.905Z,0.00
2023-05-14T00:08:42.901Z,0.00
2023-05-14T00:09:42.879Z,0.00
2023-05-14T00:10:42.875Z,0.00
2023-05-14T00:11:42.871Z,0.00
2023-05-14T00:12:42.860Z,0.00
2023-05-14T00:13:42.850Z,0.00
2023-05-14T00:14:42.846Z,0.00
2023-05-14T00:15:42.885Z,0.00
2023-05-14T00:16:42.831Z,0.00
2023-05-14T00:17:42.862Z,0.00
2023-05-14T00:18:42.868Z,0.00
2023-05-14T00:19:42.827Z,0.00
2023-05-14T00:20:42.802Z,0.00
2023-05-14T00:21:42.792Z,0.00
2023-05-14T00:22:42.789Z,0.00
2023-05-14T00:23:42.784Z,0.00
2023-05-14T00:24:42.775Z,0.00
2023-05-14T00:25:42.764Z,0.00
2023-05-14T00:26:42.768Z,0.00
2023-05-14T00:27:42.760Z,0.00
2023-05-14T00:28:42.745Z,0.00
2023-05-14T00:29:42.739Z,0.00
2023-05-14T00:30:42.738Z,0.00
2023-05-14T00:31:42.748Z,0.00
2023-05-14T00:32:42.741Z,0.00
2023-05-14T00:33:42.710Z,0.00
2023-05-14T00:34:42.713Z,0.00
2023-05-14T00:35:42.694Z,0.00
2023-05-14T00:36:42.686Z,0.00
2023-05-14T00:37:42.679Z,0.00
2023-05-14T00:38:42.702Z,0.00
2023-05-14T00:39:42.665Z,0.00
2023-05-14T00:40:42.658Z,0.00
2023-05-14T00:41:42.682Z,0.00
2023-05-14T00:42:42.645Z,0.00
2023-05-14T00:43:42.637Z,0.00
2023-05-14T00:44:42.626Z,0.00
2023-05-14T00:45:42.616Z,0.00
2023-05-14T00:46:42.637Z,0.00
2023-05-14T00:47:42.630Z,0.00
2023-05-14T00:48:42.601Z,0.00
2023-05-14T00:49:42.590Z,0.00
2023-05-14T00:50:42.584Z,0.00
2023-05-14T00:51:42.578Z,0.00
2023-05-14T00:52:42.571Z,0.00
2023-05-14T00:53:42.560Z,0.00
2023-05-14T00:54:42.555Z,0.00
2023-05-14T00:55:42.556Z,0.00
2023-05-14T00:56:42.555Z,0.00
2023-05-14T00:57:42.533Z,0.00
2023-05-14T00:58:42.523Z,0.00
2023-05-14T00:59:42.527Z,0.00
2023-05-14T01:00:42.553Z,0.00
2023-05-14T01:01:42.502Z,0.00
2023-05-14T01:02:42.550Z,0.00
2023-05-14T01:03:42.666Z,0.00
2023-05-14T01:04:42.483Z,0.00
2023-05-14T01:05:42.469Z,0.00
2023-05-14T01:06:42.467Z,0.00
2023-05-14T01:07:42.456Z,0.00
2023-05-14T01:08:42.459Z,0.00
2023-05-14T01:09:42.448Z,0.00
2023-05-14T01:10:42.465Z,0.00
2023-05-14T01:11:42.433Z,0.00
2023-05-14T01:12:42.421Z,0.00
2023-05-14T01:13:42.417Z,0.00
2023-05-14T01:14:42.403Z,0.00
2023-05-14T01:15:42.421Z,0.00
2023-05-14T01:16:42.400Z,0.00
2023-05-14T01:17:42.453Z,0.00
2023-05-14T01:18:42.381Z,0.00
2023-05-14T01:19:42.367Z,0.00
2023-05-14T01:20:42.386Z,0.00
2023-05-14T01:21:42.357Z,0.00
2023-05-14T01:22:42.359Z,0.00
2023-05-14T01:23:42.340Z,0.00
2023-05-14T01:24:42.326Z,0.00
2023-05-14T01:25:42.323Z,0.00
2023-05-14T01:26:42.313Z,0.00
2023-05-14T01:27:42.308Z,0.00
2023-05-14T01:28:42.312Z,0.00
2023-05-14T01:29:42.292Z,0.00
2023-05-14T01:30:42.289Z,0.00
2023-05-14T01:31:42.322Z,0.00
2023-05-14T01:32:42.275Z,0.00
2023-05-14T01:33:42.266Z,0.00
2023-05-14T01:36:44.375Z,0.00
2023-05-14T01:37:24.936Z,0.00
2023-05-14T01:39:17.841Z,0.00
2023-05-14T01:40:17.828Z,0.00
2023-05-14T01:42:21.802Z,0.00
2023-05-14T01:43:21.805Z,0.00
2023-05-14T01:45:25.779Z,0.00
2023-05-14T01:46:25.774Z,0.00
2023-05-14T01:48:29.720Z,0.00
2023-05-14T01:49:29.701Z,0.00
2023-05-14T01:51:33.716Z,0.00
2023-05-14T01:52:33.699Z,0.00
2023-05-14T01:54:37.673Z,0.00
2023-05-14T01:55:37.684Z,0.00
2023-05-14T01:57:41.629Z,0.00
2023-05-14T01:58:41.614Z,0.00
2023-05-14T02:00:45.643Z,0.00
2023-05-14T02:01:45.647Z,0.00
2023-05-14T02:03:49.628Z,0.00
2023-05-14T02:04:49.576Z,0.00
2023-05-14T02:06:53.546Z,0.00
2023-05-14T02:07:53.537Z,0.00
2023-05-14T02:09:46.436Z,0.00
2023-05-14T02:10:46.416Z,0.00
2023-05-14T02:12:50.877Z,0.00
2023-05-14T02:13:50.470Z,0.00
2023-05-14T02:15:54.438Z,0.00
2023-05-14T02:16:54.400Z,0.00
2023-05-14T02:18:58.418Z,0.00
2023-05-14T02:19:58.391Z,0.00
2023-05-14T02:22:02.351Z,0.00
2023-05-14T02:23:02.347Z,0.00
2023-05-14T02:25:06.320Z,0.00
2023-05-14T02:26:06.305Z,0.00
2023-05-14T02:28:10.291Z,0.00
2023-05-14T02:29:10.321Z,0.00
2023-05-14T02:31:14.285Z,0.00
2023-05-14T02:32:14.282Z,0.00
2023-05-14T02:34:18.199Z,0.00
2023-05-14T02:35:18.194Z,0.00
2023-05-14T02:37:22.196Z,0.00
2023-05-14T02:38:22.152Z,4.00
2023-05-14T02:40:15.069Z,0.00
2023-05-14T02:41:15.053Z,0.00
2023-05-14T02:43:19.016Z,4.00
2023-05-14T02:44:19.007Z,0.00
2023-05-14T02:46:23.017Z,4.00
2023-05-14T02:47:23.026Z,4.00
2023-05-14T02:49:15.886Z,4.00
2023-05-14T02:50:15.864Z,4.00
2023-05-14T02:52:19.839Z,8.00
2023-05-14T02:53:19.831Z,8.00
2023-05-14T02:55:23.806Z,12.00
2023-05-14T02:56:23.801Z,16.00
2023-05-14T02:58:28.496Z,16.00
2023-05-14T02:59:27.749Z,20.00
2023-05-14T03:01:31.724Z,24.00
2023-05-14T03:02:31.769Z,28.00
2023-05-14T03:04:35.684Z,32.00
2023-05-14T03:05:35.671Z,36.00
2023-05-14T03:07:39.648Z,44.00
2023-05-14T03:08:39.628Z,48.00
2023-05-14T03:10:43.628Z,56.00
2023-05-14T03:11:43.613Z,64.00
2023-05-14T03:13:47.587Z,72.00
2023-05-14T03:14:47.562Z,76.00
2023-05-14T03:16:51.598Z,92.00
2023-05-14T03:17:51.567Z,100.00
2023-05-14T03:19:44.433Z,116.00
2023-05-14T03:20:44.406Z,124.00
2023-05-14T03:22:48.433Z,140.00
2023-05-14T03:23:48.377Z,144.00
2023-05-14T03:25:52.379Z,156.00
2023-05-14T03:26:52.369Z,168.00
2023-05-14T03:28:56.343Z,180.00
2023-05-14T03:29:56.327Z,184.00
2023-05-14T03:32:00.324Z,204.00
2023-05-14T03:33:00.356Z,212.00
2023-05-14T03:35:04.275Z,244.00
2023-05-14T03:36:04.263Z,264.00
2023-05-14T03:38:08.265Z,308.00
2023-05-14T03:39:08.253Z,328.00
2023-05-14T03:41:12.197Z,368.00
2023-05-14T03:42:12.180Z,396.00
2023-05-14T03:44:16.158Z,444.00
2023-05-14T03:45:16.147Z,468.00
2023-05-14T03:47:20.117Z,504.00
2023-05-14T03:48:20.207Z,516.00
2023-05-14T03:50:13.015Z,540.00
2023-05-14T03:51:12.994Z,560.00
2023-05-14T03:53:16.974Z,624.00
2023-05-14T03:54:17.024Z,648.00
2023-05-14T03:56:20.931Z,692.00
2023-05-14T03:57:20.908Z,716.00
2023-05-14T03:59:13.814Z,772.00
2023-05-14T04:00:13.795Z,820.00
2023-05-14T04:02:17.846Z,944.00
2023-05-14T04:03:17.848Z,1020.00
2023-05-14T04:05:21.749Z,1136.00
2023-05-14T04:06:21.720Z,1172.00
2023-05-14T04:08:25.697Z,1208.00
2023-05-14T04:09:25.707Z,1224.00
2023-05-14T04:11:29.656Z,1344.00
2023-05-14T04:12:29.642Z,1380.00
2023-05-14T04:14:33.619Z,1472.00
2023-05-14T04:15:33.604Z,1532.00
2023-05-14T04:17:37.635Z,1740.00
2023-05-14T04:18:37.597Z,1868.00
2023-05-14T04:20:41.534Z,2124.00
2023-05-14T04:21:41.534Z,2244.00
2023-05-14T04:23:45.502Z,2304.00
2023-05-14T04:24:45.486Z,2276.00
2023-05-14T04:26:49.465Z,2372.00
2023-05-14T04:27:49.448Z,2440.00
2023-05-14T04:29:42.351Z,3120.00
2023-05-14T04:30:42.329Z,2948.00
2023-05-14T04:32:46.318Z,2224.00
2023-05-14T04:33:46.301Z,2096.00
2023-05-14T04:35:50.282Z,2200.00
2023-05-14T04:36:50.261Z,2220.00
2023-05-14T04:38:54.243Z,2204.00
2023-05-14T04:39:54.212Z,2264.00
2023-05-14T04:41:58.189Z,2452.00
2023-05-14T04:42:58.177Z,2400.00
2023-05-14T04:45:02.161Z,2244.00
2023-05-14T04:46:02.228Z,2236.00
2023-05-14T04:48:06.157Z,2208.00
2023-05-14T04:49:06.106Z,2188.00
2023-05-14T04:51:10.077Z,2184.00
2023-05-14T04:52:10.071Z,2204.00
2023-05-14T04:54:14.059Z,2280.00
2023-05-14T04:55:14.025Z,2356.00
2023-05-14T04:57:17.996Z,2592.00
2023-05-14T04:58:17.979Z,2992.00
2023-05-14T05:00:10.891Z,3708.00
2023-05-14T05:01:10.888Z,3700.00
2023-05-14T05:03:14.993Z,5736.00
2023-05-14T05:04:15.026Z,5988.00
2023-05-14T05:06:18.829Z,6264.00
2023-05-14T05:07:18.807Z,6336.00
2023-05-14T05:09:22.788Z,6432.00
2023-05-14T05:10:22.984Z,6456.00
2023-05-14T05:12:26.747Z,6416.00
2023-05-14T05:13:26.737Z,6420.00
2023-05-14T05:15:30.708Z,6552.00
2023-05-14T05:16:30.725Z,6568.00
2023-05-14T05:18:34.781Z,6580.00
2023-05-14T05:19:43.112Z,6596.00
2023-05-14T05:21:38.635Z,6660.00
2023-05-14T05:22:38.622Z,6684.00
2023-05-14T05:24:42.604Z,6704.00
2023-05-14T05:25:42.600Z,6704.00
2023-05-14T05:27:46.574Z,6720.00
2023-05-14T05:28:46.562Z,6756.00
2023-05-14T05:30:50.542Z,4560.00
2023-05-14T05:31:50.563Z,4020.00
2023-05-14T05:33:54.507Z,6600.00
2023-05-14T05:34:54.498Z,6940.00
2023-05-14T05:36:58.590Z,7136.00
2023-05-14T05:38:00.470Z,9248.00
2023-05-14T05:39:51.495Z,7524.00
2023-05-14T05:40:51.472Z,7800.00
2023-05-14T05:42:55.454Z,7372.00
2023-05-14T05:43:55.440Z,8304.00
2023-05-14T05:45:59.438Z,10068.00
2023-05-14T05:46:59.533Z,9652.00
2023-05-14T05:49:03.394Z,8972.00
2023-05-14T05:50:03.389Z,7336.00
2023-05-14T05:52:07.361Z,4940.00
2023-05-14T05:53:07.348Z,5680.00
2023-05-14T05:55:11.356Z,7752.00
2023-05-14T05:56:11.319Z,6384.00
2023-05-14T05:58:15.314Z,5396.00
2023-05-14T05:59:15.296Z,6560.00
2023-05-14T06:00:15.322Z,7220.00
2023-05-14T06:01:15.294Z,6752.00
2023-05-14T06:02:15.361Z,7496.00
2023-05-14T06:03:15.319Z,6536.00
2023-05-14T06:04:15.276Z,7024.00
2023-05-14T06:05:15.309Z,7120.00
2023-05-14T06:06:15.269Z,7480.00
2023-05-14T06:07:15.263Z,7224.00
2023-05-14T06:08:15.263Z,7452.00
2023-05-14T06:09:15.256Z,7972.00
2023-05-14T06:10:15.261Z,8404.00
2023-05-14T06:11:15.252Z,8784.00
2023-05-14T06:12:15.247Z,9264.00
2023-05-14T06:13:15.263Z,9912.00
2023-05-14T06:14:15.237Z,12032.00
2023-05-14T06:15:15.235Z,11840.00
2023-05-14T06:16:15.247Z,12224.00
2023-05-14T06:17:15.223Z,11964.00
2023-05-14T06:18:15.225Z,12784.00
2023-05-14T06:19:15.253Z,25920.00
2023-05-14T06:20:15.213Z,13908.00
2023-05-14T06:21:15.211Z,12452.00
2023-05-14T06:22:15.214Z,16960.00
2023-05-14T06:23:15.200Z,9984.00
2023-05-14T06:24:15.207Z,9868.00
2023-05-14T06:25:15.196Z,10744.00
2023-05-14T06:26:15.209Z,8480.00
2023-05-14T06:27:15.215Z,8428.00
2023-05-14T06:28:15.183Z,9488.00
2023-05-14T06:29:15.200Z,29920.00
2023-05-14T06:30:15.180Z,12400.00
2023-05-14T06:31:15.190Z,10240.00
2023-05-14T06:32:15.208Z,10088.00
2023-05-14T06:33:15.165Z,10452.00
2023-05-14T06:34:15.168Z,9288.00
2023-05-14T06:35:15.162Z,7772.00
2023-05-14T06:36:15.172Z,6732.00
2023-05-14T06:37:15.165Z,6268.00
2023-05-14T06:38:15.154Z,6180.00
2023-05-14T06:39:15.170Z,5860.00
2023-05-14T06:40:15.142Z,5864.00
2023-05-14T06:41:15.142Z,5776.00
2023-05-14T06:42:15.134Z,5904.00
2023-05-14T06:43:15.146Z,5896.00
2023-05-14T06:44:15.128Z,5584.00
2023-05-14T06:45:15.126Z,5436.00
2023-05-14T06:46:15.123Z,5496.00
2023-05-14T06:47:15.123Z,5592.00
2023-05-14T06:48:15.228Z,5704.00
2023-05-14T06:49:15.260Z,5968.00
2023-05-14T06:50:15.104Z,6316.00
2023-05-14T06:51:15.103Z,6536.00
2023-05-14T06:52:15.102Z,6848.00
2023-05-14T06:53:15.095Z,7052.00
2023-05-14T06:54:15.090Z,7056.00
2023-05-14T06:55:15.089Z,6820.00
2023-05-14T06:56:15.082Z,6676.00
2023-05-14T06:57:15.084Z,6608.00
2023-05-14T06:58:15.075Z,6652.00
2023-05-14T06:59:15.081Z,6576.00
2023-05-14T07:00:15.066Z,6516.00
2023-05-14T07:01:15.102Z,6300.00
2023-05-14T07:02:15.057Z,6048.00
2023-05-14T07:03:15.057Z,5856.00
2023-05-14T07:04:15.089Z,5644.00
2023-05-14T07:05:15.047Z,5440.00
2023-05-14T07:06:15.039Z,5208.00
2023-05-14T07:07:15.058Z,5008.00
2023-05-14T07:08:15.041Z,4652.00
2023-05-14T07:09:15.030Z,4392.00
2023-05-14T07:10:15.032Z,4668.00
2023-05-14T07:11:15.047Z,5380.00
2023-05-14T07:12:15.022Z,6140.00
2023-05-14T07:13:15.022Z,6428.00
2023-05-14T07:14:15.014Z,6172.00
2023-05-14T07:15:15.019Z,5876.00
2023-05-14T07:16:15.054Z,6072.00
2023-05-14T07:17:15.035Z,6304.00
2023-05-14T07:18:15.022Z,6120.00
2023-05-14T07:19:15.143Z,5612.00
2023-05-14T07:20:14.985Z,5292.00
2023-05-14T07:21:14.994Z,5356.00
2023-05-14T07:22:14.980Z,5852.00
2023-05-14T07:23:14.974Z,6516.00
2023-05-14T07:24:14.968Z,6660.00
2023-05-14T07:25:15.081Z,6392.00
2023-05-14T07:26:14.961Z,6224.00
2023-05-14T07:27:14.971Z,5960.00
2023-05-14T07:28:14.958Z,5516.00
2023-05-14T07:29:14.951Z,5100.00
2023-05-14T07:30:14.952Z,4968.00
2023-05-14T07:31:14.970Z,5172.00
2023-05-14T07:32:15.747Z,5480.00
2023-05-14T07:33:14.939Z,5328.00
2023-05-14T07:34:14.922Z,5296.00
2023-05-14T07:35:14.923Z,5544.00
2023-05-14T07:36:14.917Z,5544.00
2023-05-14T07:37:14.911Z,5260.00
2023-05-14T07:38:14.910Z,5188.00
2023-05-14T07:39:14.905Z,5108.00
2023-05-14T07:40:14.900Z,4916.00
2023-05-14T07:41:14.897Z,4796.00
2023-05-14T07:42:24.676Z,4932.00
2023-05-14T07:43:14.929Z,5608.00
2023-05-14T07:44:14.888Z,6840.00
2023-05-14T07:45:14.877Z,8076.00
2023-05-14T07:46:14.895Z,8872.00
2023-05-14T07:47:14.899Z,9184.00
2023-05-14T07:48:14.967Z,9152.00
2023-05-14T07:49:14.873Z,9460.00
2023-05-14T07:50:14.858Z,10080.00
2023-05-14T07:51:14.859Z,10876.00
2023-05-14T07:52:14.853Z,11340.00
2023-05-14T07:53:14.847Z,11136.00
2023-05-14T07:54:14.848Z,10536.00
2023-05-14T07:55:14.841Z,10068.00
2023-05-14T07:56:14.838Z,9216.00
2023-05-14T07:57:14.837Z,8556.00
2023-05-14T07:58:14.856Z,7896.00
2023-05-14T07:59:14.829Z,7768.00
2023-05-14T08:00:14.819Z,8816.00
2023-05-14T08:01:14.829Z,10592.00
2023-05-14T08:02:14.832Z,12236.00
2023-05-14T08:03:15.025Z,11492.00
2023-05-14T08:04:14.844Z,13168.00
2023-05-14T08:05:14.814Z,14032.00
2023-05-14T08:06:14.801Z,14380.00
2023-05-14T08:07:14.809Z,14616.00
2023-05-14T08:08:14.941Z,18720.00
2023-05-14T08:09:14.795Z,14592.00
2023-05-14T08:10:14.806Z,12508.00
2023-05-14T08:11:14.818Z,10988.00
2023-05-14T08:12:14.786Z,9868.00
2023-05-14T08:13:14.787Z,9096.00
2023-05-14T08:14:14.773Z,8848.00
2023-05-14T08:15:14.777Z,8668.00
2023-05-14T08:16:14.855Z,8484.00
2023-05-14T08:17:14.883Z,8480.00
2023-05-14T08:18:14.770Z,8516.00
2023-05-14T08:19:14.891Z,8504.00
2023-05-14T08:20:14.770Z,8396.00
2023-05-14T08:21:14.784Z,8400.00
2023-05-14T08:22:14.759Z,8520.00
2023-05-14T08:23:14.758Z,8600.00
2023-05-14T08:24:14.752Z,8940.00
2023-05-14T08:25:14.760Z,9304.00
2023-05-14T08:26:14.749Z,9636.00
2023-05-14T08:27:14.787Z,9776.00
2023-05-14T08:28:14.743Z,9676.00
2023-05-14T08:29:16.443Z,9664.00
2023-05-14T08:30:14.743Z,9792.00
2023-05-14T08:31:14.868Z,10100.00
2023-05-14T08:32:22.796Z,10380.00
2023-05-14T08:33:14.732Z,10720.00
2023-05-14T08:34:14.728Z,10904.00
2023-05-14T08:35:14.731Z,10592.00
2023-05-14T08:36:14.727Z,10724.00
2023-05-14T08:37:14.718Z,11308.00
2023-05-14T08:38:14.734Z,11992.00
2023-05-14T08:39:14.717Z,12404.00
2023-05-14T08:40:14.726Z,11892.00
2023-05-14T08:41:14.714Z,11704.00
2023-05-14T08:42:14.713Z,12080.00
2023-05-14T08:43:14.706Z,12480.00
2023-05-14T08:44:14.707Z,12512.00
2023-05-14T08:45:14.699Z,12912.00
2023-05-14T08:46:14.700Z,12992.00
2023-05-14T08:47:14.699Z,13172.00
2023-05-14T08:48:14.830Z,13396.00
2023-05-14T08:49:14.693Z,13920.00
2023-05-14T08:50:14.686Z,15076.00
2023-05-14T08:51:14.686Z,14968.00
2023-05-14T08:52:14.694Z,15620.00
2023-05-14T08:53:14.680Z,14576.00
2023-05-14T08:54:14.691Z,15512.00
2023-05-14T08:55:14.678Z,15180.00
2023-05-14T08:56:14.681Z,16320.00
2023-05-14T08:57:14.686Z,16576.00
2023-05-14T08:58:14.671Z,16224.00
2023-05-14T08:59:14.672Z,15436.00
2023-05-14T09:00:14.672Z,14704.00
2023-05-14T09:01:14.684Z,14688.00
2023-05-14T09:02:14.757Z,14568.00
2023-05-14T09:03:14.711Z,14692.00
2023-05-14T09:04:14.680Z,14480.00
2023-05-14T09:05:14.656Z,14592.00
2023-05-14T09:06:14.656Z,14820.00
2023-05-14T09:07:14.653Z,15096.00
2023-05-14T09:08:14.651Z,15312.00
2023-05-14T09:09:14.655Z,15232.00
2023-05-14T09:10:14.652Z,15288.00
2023-05-14T09:11:14.654Z,15440.00
2023-05-14T09:12:14.651Z,15808.00
2023-05-14T09:13:14.647Z,15808.00
2023-05-14T09:14:14.642Z,15480.00
2023-05-14T09:15:14.658Z,15288.00
2023-05-14T09:16:14.669Z,15156.00
2023-05-14T09:17:14.643Z,15068.00
2023-05-14T09:18:14.639Z,15076.00
2023-05-14T09:19:14.662Z,15148.00
2023-05-14T09:20:14.638Z,15188.00
2023-05-14T09:21:14.629Z,15156.00
2023-05-14T09:22:14.633Z,15088.00
2023-05-14T09:23:14.631Z,15036.00
2023-05-14T09:24:14.627Z,15124.00
2023-05-14T09:25:14.652Z,15248.00
2023-05-14T09:26:14.625Z,15284.00
2023-05-14T09:27:14.626Z,15180.00
2023-05-14T09:28:14.622Z,14864.00
2023-05-14T09:29:14.624Z,14436.00
2023-05-14T09:30:14.653Z,13808.00
2023-05-14T09:31:14.654Z,12976.00
2023-05-14T09:32:14.617Z,12288.00
2023-05-14T09:33:14.615Z,11616.00
2023-05-14T09:34:14.613Z,11096.00
2023-05-14T09:35:14.618Z,10784.00
2023-05-14T09:36:14.608Z,10608.00
2023-05-14T09:37:14.608Z,10404.00
2023-05-14T09:38:14.608Z,10308.00
2023-05-14T09:39:14.616Z,10420.00
2023-05-14T09:40:14.630Z,10580.00
2023-05-14T09:41:14.602Z,10820.00
2023-05-14T09:42:14.627Z,11076.00
2023-05-14T09:43:14.600Z,11228.00
2023-05-14T09:44:14.600Z,11080.00
2023-05-14T09:45:14.597Z,10968.00
2023-05-14T09:46:14.603Z,10932.00
2023-05-14T09:47:14.655Z,10916.00
2023-05-14T09:48:14.616Z,10504.00
2023-05-14T09:49:14.590Z,10312.00
2023-05-14T09:50:14.595Z,9756.00
2023-05-14T09:51:14.596Z,9112.00
2023-05-14T09:52:14.593Z,8768.00
2023-05-14T09:53:14.585Z,8204.00
2023-05-14T09:54:14.590Z,7584.00
2023-05-14T09:55:14.604Z,6736.00
2023-05-14T09:56:14.580Z,6044.00
2023-05-14T09:57:14.582Z,6092.00
2023-05-14T09:58:14.587Z,6012.00
2023-05-14T09:59:14.576Z,5948.00
2023-05-14T10:00:14.576Z,5828.00
2023-05-14T10:01:14.581Z,5728.00
2023-05-14T10:02:14.620Z,5620.00
2023-05-14T10:03:16.008Z,5548.00
2023-05-14T10:04:14.622Z,5492.00
2023-05-14T10:05:14.564Z,5436.00
2023-05-14T10:06:14.612Z,5420.00
2023-05-14T10:07:14.635Z,5380.00
2023-05-14T10:08:14.687Z,5380.00
2023-05-14T10:09:14.596Z,5364.00
2023-05-14T10:10:14.637Z,5352.00
2023-05-14T10:11:14.602Z,5356.00
2023-05-14T10:12:14.560Z,5352.00
2023-05-14T10:13:14.563Z,5356.00
2023-05-14T10:14:14.568Z,5360.00
2023-05-14T10:15:14.546Z,5344.00
2023-05-14T10:16:14.545Z,5324.00
2023-05-14T10:17:14.589Z,5316.00
2023-05-14T10:18:14.613Z,5320.00
2023-05-14T10:19:14.585Z,5364.00
2023-05-14T10:20:14.544Z,5424.00
2023-05-14T10:21:14.538Z,5516.00
2023-05-14T10:22:14.562Z,5556.00
2023-05-14T10:23:14.530Z,5596.00
2023-05-14T10:24:14.634Z,5700.00
2023-05-14T10:25:14.527Z,5832.00
2023-05-14T10:26:14.525Z,6164.00
2023-05-14T10:27:14.531Z,6872.00
2023-05-14T10:28:14.521Z,7112.00
2023-05-14T10:29:14.517Z,6484.00
2023-05-14T10:30:14.520Z,5848.00
2023-05-14T10:31:14.583Z,6112.00
2023-05-14T10:32:14.512Z,6504.00
2023-05-14T10:33:14.614Z,7168.00
2023-05-14T10:34:14.511Z,7684.00
2023-05-14T10:35:14.506Z,7640.00
2023-05-14T10:36:14.512Z,7528.00
2023-05-14T10:37:14.501Z,7700.00
2023-05-14T10:38:14.522Z,7520.00
2023-05-14T10:39:14.496Z,7216.00
2023-05-14T10:40:14.497Z,6492.00
2023-05-14T10:41:14.489Z,6296.00
2023-05-14T10:42:14.496Z,6124.00
2023-05-14T10:43:14.488Z,5908.00
2023-05-14T10:44:14.502Z,6328.00
2023-05-14T10:45:14.483Z,6460.00
2023-05-14T10:46:14.604Z,6396.00
2023-05-14T10:47:14.480Z,6616.00
2023-05-14T10:48:14.493Z,7636.00
2023-05-14T10:49:14.480Z,8412.00
2023-05-14T10:50:14.473Z,8892.00
2023-05-14T10:51:14.540Z,9312.00
2023-05-14T10:52:14.527Z,9312.00
2023-05-14T10:53:14.476Z,10052.00
2023-05-14T10:54:14.697Z,10756.00
2023-05-14T10:55:14.484Z,10488.00
2023-05-14T10:56:14.494Z,9876.00
2023-05-14T10:57:14.466Z,9324.00
2023-05-14T10:58:14.462Z,9340.00
2023-05-14T10:59:14.461Z,9584.00
2023-05-14T11:00:14.489Z,9692.00
2023-05-14T11:01:14.506Z,9436.00
2023-05-14T11:02:14.615Z,9100.00
2023-05-14T11:03:14.511Z,9128.00
2023-05-14T11:04:14.480Z,9444.00
2023-05-14T11:05:14.470Z,10052.00
2023-05-14T11:06:14.453Z,10308.00
2023-05-14T11:07:14.493Z,10044.00
2023-05-14T11:08:14.458Z,9440.00
2023-05-14T11:09:14.485Z,8512.00
2023-05-14T11:10:14.465Z,7284.00
2023-05-14T11:11:14.569Z,6360.00
2023-05-14T11:12:14.438Z,5472.00
2023-05-14T11:13:14.436Z,4604.00
2023-05-14T11:14:14.436Z,3964.00
2023-05-14T11:15:14.449Z,3604.00
2023-05-14T11:16:23.366Z,3428.00
2023-05-14T11:17:14.508Z,3356.00
2023-05-14T11:18:14.471Z,3304.00
2023-05-14T11:19:14.449Z,3284.00
2023-05-14T11:20:14.446Z,3404.00
2023-05-14T11:21:14.448Z,3504.00
2023-05-14T11:22:14.422Z,3532.00
2023-05-14T11:23:14.422Z,3512.00
2023-05-14T11:24:14.415Z,3516.00
2023-05-14T11:25:14.548Z,3576.00
2023-05-14T11:26:14.728Z,3716.00
2023-05-14T11:27:14.407Z,3940.00
2023-05-14T11:28:14.410Z,4208.00
2023-05-14T11:29:14.405Z,4432.00
2023-05-14T11:30:14.398Z,4704.00
2023-05-14T11:31:14.409Z,4944.00
2023-05-14T11:32:14.398Z,5208.00
2023-05-14T11:33:14.459Z,5460.00
2023-05-14T11:34:14.394Z,5716.00
2023-05-14T11:35:14.403Z,5972.00
2023-05-14T11:36:14.389Z,6260.00
2023-05-14T11:37:14.418Z,6688.00
2023-05-14T11:38:14.386Z,7220.00
2023-05-14T11:39:14.383Z,7680.00
2023-05-14T11:40:14.496Z,8044.00
2023-05-14T11:41:14.377Z,8428.00
2023-05-14T11:42:14.378Z,8852.00
2023-05-14T11:43:14.374Z,9240.00
2023-05-14T11:44:14.370Z,9404.00
2023-05-14T11:45:14.418Z,9436.00
2023-05-14T11:46:14.397Z,9436.00
2023-05-14T11:47:14.366Z,9336.00
2023-05-14T11:48:14.436Z,9120.00
2023-05-14T11:49:14.361Z,8896.00
2023-05-14T11:50:14.364Z,8684.00
2023-05-14T11:51:14.414Z,8660.00
2023-05-14T11:52:14.363Z,8432.00
2023-05-14T11:53:14.352Z,8040.00
2023-05-14T11:54:14.349Z,7800.00
2023-05-14T11:55:14.354Z,7684.00
2023-05-14T11:56:14.355Z,7528.00
2023-05-14T11:57:14.356Z,7456.00
2023-05-14T11:58:14.357Z,7604.00
2023-05-14T11:59:14.344Z,7976.00
2023-05-14T12:00:14.355Z,8528.00
2023-05-14T12:01:14.372Z,8988.00
2023-05-14T12:02:14.361Z,9228.00
2023-05-14T12:03:14.438Z,9300.00
2023-05-14T12:04:14.367Z,9264.00
2023-05-14T12:05:14.330Z,9096.00
2023-05-14T12:06:14.325Z,8348.00
2023-05-14T12:07:14.330Z,7436.00
2023-05-14T12:08:14.324Z,6432.00
2023-05-14T12:09:14.322Z,5512.00
2023-05-14T12:10:14.331Z,4724.00
2023-05-14T12:11:14.323Z,4100.00
2023-05-14T12:12:14.322Z,3728.00
2023-05-14T12:13:14.316Z,3360.00
2023-05-14T12:14:14.351Z,3040.00
2023-05-14T12:15:14.335Z,2836.00
2023-05-14T12:16:14.362Z,2712.00
2023-05-14T12:17:14.311Z,2616.00
2023-05-14T12:18:23.478Z,2592.00
2023-05-14T12:19:14.347Z,2648.00
2023-05-14T12:20:14.316Z,2780.00
2023-05-14T12:21:14.314Z,2860.00
2023-05-14T12:22:14.303Z,2860.00
2023-05-14T12:23:14.300Z,2856.00
2023-05-14T12:24:14.302Z,2872.00
2023-05-14T12:25:14.323Z,2884.00
2023-05-14T12:26:14.295Z,2952.00
2023-05-14T12:27:14.296Z,2992.00
2023-05-14T12:28:14.294Z,3052.00
2023-05-14T12:29:14.285Z,3192.00
2023-05-14T12:30:34.290Z,3384.00
2023-05-14T12:31:14.326Z,3648.00
2023-05-14T12:32:14.279Z,3908.00
2023-05-14T12:33:14.333Z,4168.00
2023-05-14T12:34:14.282Z,4456.00
2023-05-14T12:35:14.281Z,4784.00
2023-05-14T12:36:21.836Z,5140.00
2023-05-14T12:37:14.270Z,5508.00
2023-05-14T12:38:14.279Z,5876.00
2023-05-14T12:39:14.273Z,6308.00
2023-05-14T12:40:14.378Z,6816.00
2023-05-14T12:41:14.276Z,7336.00
2023-05-14T12:42:14.262Z,7844.00
2023-05-14T12:43:14.262Z,8124.00
2023-05-14T12:44:14.261Z,8396.00
2023-05-14T12:45:14.252Z,8564.00
2023-05-14T12:46:14.254Z,8624.00
2023-05-14T12:47:14.277Z,8620.00
2023-05-14T12:48:14.383Z,8696.00
2023-05-14T12:49:14.252Z,8896.00
2023-05-14T12:50:14.257Z,9084.00
2023-05-14T12:51:14.250Z,9160.00
2023-05-14T12:52:25.691Z,9236.00
2023-05-14T12:53:14.240Z,9184.00
2023-05-14T12:54:14.238Z,9224.00
2023-05-14T12:55:14.243Z,9044.00
2023-05-14T12:56:14.254Z,8652.00
2023-05-14T12:57:14.233Z,8296.00
2023-05-14T12:58:14.229Z,8020.00
2023-05-14T12:59:14.231Z,7896.00
2023-05-14T13:00:14.519Z,7904.00
2023-05-14T13:01:14.325Z,8132.00
2023-05-14T13:02:16.725Z,8064.00
2023-05-14T13:03:14.275Z,7964.00
2023-05-14T13:04:14.243Z,7260.00
2023-05-14T13:05:14.242Z,6820.00
2023-05-14T13:06:14.221Z,6724.00
2023-05-14T13:07:14.214Z,6696.00
2023-05-14T13:08:14.218Z,6764.00
2023-05-14T13:09:14.222Z,6680.00
2023-05-14T13:10:14.228Z,6460.00
2023-05-14T13:11:14.235Z,6448.00
2023-05-14T13:12:14.211Z,6532.00
2023-05-14T13:13:14.207Z,6948.00
2023-05-14T13:14:14.201Z,7400.00
2023-05-14T13:15:14.579Z,8028.00
2023-05-14T13:16:14.210Z,8216.00
2023-05-14T13:17:14.203Z,8948.00
2023-05-14T13:18:14.202Z,10068.00
2023-05-14T13:19:14.293Z,10140.00
2023-05-14T13:20:14.194Z,8168.00
2023-05-14T13:21:14.205Z,7468.00
2023-05-14T13:22:14.195Z,7752.00
2023-05-14T13:23:14.194Z,7852.00
2023-05-14T13:24:14.193Z,7856.00
2023-05-14T13:25:14.192Z,7588.00
2023-05-14T13:26:14.211Z,7396.00
2023-05-14T13:27:14.197Z,7140.00
2023-05-14T13:28:14.190Z,6848.00
2023-05-14T13:29:14.204Z,6604.00
2023-05-14T13:30:14.199Z,6452.00
2023-05-14T13:31:14.225Z,6268.00
2023-05-14T13:32:14.203Z,5952.00
2023-05-14T13:33:14.369Z,5844.00
2023-05-14T13:34:14.195Z,5828.00
2023-05-14T13:35:14.189Z,5720.00
2023-05-14T13:36:14.182Z,5440.00
2023-05-14T13:37:14.201Z,5204.00
2023-05-14T13:38:14.176Z,5104.00
2023-05-14T13:39:14.421Z,5052.00
2023-05-14T13:40:14.185Z,4952.00
2023-05-14T13:41:14.176Z,4912.00
2023-05-14T13:42:14.173Z,4848.00
2023-05-14T13:43:14.321Z,4736.00
2023-05-14T13:44:14.172Z,4672.00
2023-05-14T13:45:14.175Z,4656.00
2023-05-14T13:46:14.190Z,4656.00
2023-05-14T13:47:14.196Z,4716.00
2023-05-14T13:48:14.226Z,4772.00
2023-05-14T13:49:14.182Z,4880.00